createdAt,value
2022-09-09T00:01:51.174Z,16.04
2022-09-09T00:04:38.260Z,16.10
2022-09-09T00:07:26.223Z,16.12
2022-09-09T00:10:23.507Z,16.13
2022-09-09T00:13:05.369Z,16.10
2022-09-09T00:16:03.749Z,16.07
2022-09-09T00:18:34.956Z,16.12
2022-09-09T00:21:13.979Z,16.20
2022-09-09T00:23:48.115Z,16.22
2022-09-09T00:26:36.778Z,16.16
2022-09-09T00:29:13.790Z,16.12
2022-09-09T00:31:40.742Z,16.10
2022-09-09T00:34:14.843Z,16.08
2022-09-09T00:36:43.028Z,16.09
2022-09-09T00:39:19.606Z,16.03
2022-09-09T00:41:46.183Z,16.01
2022-09-09T00:44:32.855Z,15.98
2022-09-09T00:47:17.757Z,15.91
2022-09-09T00:50:11.038Z,15.95
2022-09-09T00:52:50.175Z,15.97
2022-09-09T00:55:44.463Z,15.84
2022-09-09T00:58:11.176Z,15.87
2022-09-09T01:00:59.089Z,15.91
2022-09-09T01:03:54.919Z,15.90
2022-09-09T01:06:39.973Z,15.84
2022-09-09T01:09:57.671Z,15.86
2022-09-09T01:12:36.926Z,15.83
2022-09-09T01:15:11.243Z,15.87
2022-09-09T01:18:11.164Z,15.78
2022-09-09T01:21:08.909Z,15.81
2022-09-09T01:23:58.747Z,15.82
2022-09-09T01:26:36.394Z,15.77
2022-09-09T01:29:03.389Z,15.84
2022-09-09T01:31:36.479Z,15.84
2022-09-09T01:34:05.462Z,15.86
2022-09-09T01:36:42.078Z,15.81
2022-09-09T01:39:09.006Z,15.77
2022-09-09T01:41:35.638Z,15.78
2022-09-09T01:44:03.257Z,15.75
2022-09-09T01:46:30.650Z,15.64
2022-09-09T01:48:59.880Z,15.55
2022-09-09T01:51:26.795Z,15.54
2022-09-09T01:53:53.584Z,15.46
2022-09-09T01:56:20.252Z,15.45
2022-09-09T01:59:04.408Z,15.50
2022-09-09T02:01:52.392Z,15.48
2022-09-09T02:04:28.304Z,15.44
2022-09-09T02:07:00.368Z,15.36
2022-09-09T02:09:27.611Z,15.34
2022-09-09T02:12:19.694Z,15.21
2022-09-09T02:14:53.322Z,15.23
2022-09-09T02:17:29.812Z,15.17
2022-09-09T02:20:22.000Z,15.12
2022-09-09T02:22:51.431Z,15.04
2022-09-09T02:25:21.341Z,15.02
2022-09-09T02:27:51.536Z,15.00
2022-09-09T02:30:21.432Z,14.99
2022-09-09T02:32:51.778Z,14.95
2022-09-09T02:35:25.325Z,14.96
2022-09-09T02:37:54.962Z,14.97
2022-09-09T02:40:22.460Z,14.93
2022-09-09T02:42:50.692Z,15.00
2022-09-09T02:45:20.755Z,15.01
2022-09-09T02:48:18.978Z,15.02
2022-09-09T02:51:20.017Z,15.09
2022-09-09T02:54:05.493Z,15.12
2022-09-09T02:56:39.855Z,15.18
2022-09-09T02:59:06.695Z,15.23
2022-09-09T03:01:33.628Z,15.26
2022-09-09T03:04:00.610Z,15.29
2022-09-09T03:06:28.363Z,15.29
2022-09-09T03:08:55.153Z,15.31
2022-09-09T03:11:21.776Z,15.32
2022-09-09T03:13:49.971Z,15.32
2022-09-09T03:16:16.919Z,15.36
2022-09-09T03:18:43.755Z,15.35
2022-09-09T03:21:10.533Z,15.34
2022-09-09T03:23:37.224Z,15.35
2022-09-09T03:26:03.864Z,15.36
2022-09-09T03:28:32.416Z,15.39
2022-09-09T03:31:04.577Z,15.42
2022-09-09T03:33:32.334Z,15.41
2022-09-09T03:35:59.096Z,15.36
2022-09-09T03:38:25.761Z,15.39
2022-09-09T03:40:58.237Z,15.48
2022-09-09T03:43:27.181Z,15.41
2022-09-09T03:45:54.621Z,15.44
2022-09-09T03:48:21.504Z,15.44
2022-09-09T03:50:54.485Z,15.45
2022-09-09T03:53:23.575Z,15.45
2022-09-09T03:55:55.619Z,15.43
2022-09-09T03:58:25.178Z,15.37
2022-09-09T04:01:00.834Z,15.36
2022-09-09T04:03:28.497Z,15.31
2022-09-09T04:05:57.068Z,15.25
2022-09-09T04:08:26.497Z,15.16
2022-09-09T04:10:54.023Z,15.15
2022-09-09T04:13:20.907Z,15.10
2022-09-09T04:15:55.989Z,15.09
2022-09-09T04:18:23.432Z,15.08
2022-09-09T04:20:51.824Z,15.15
2022-09-09T04:23:21.981Z,15.19
2022-09-09T04:25:51.012Z,15.17
2022-09-09T04:28:19.287Z,15.20
2022-09-09T04:30:47.397Z,15.21
2022-09-09T04:33:14.957Z,15.21
2022-09-09T04:35:50.458Z,15.21
2022-09-09T04:38:18.538Z,15.11
2022-09-09T04:40:48.099Z,15.16
2022-09-09T04:43:18.038Z,15.12
2022-09-09T04:45:47.933Z,15.13
2022-09-09T04:48:15.337Z,15.04
2022-09-09T04:50:42.118Z,15.07
2022-09-09T04:53:09.113Z,15.04
2022-09-09T04:55:36.860Z,14.99
2022-09-09T04:58:08.896Z,15.05
2022-09-09T05:00:37.043Z,15.02
2022-09-09T05:03:10.123Z,15.05
2022-09-09T05:05:38.141Z,15.02
2022-09-09T05:08:06.938Z,14.97
2022-09-09T05:10:35.003Z,15.02
2022-09-09T05:13:01.618Z,15.02
2022-09-09T05:15:28.309Z,15.02
2022-09-09T05:18:04.255Z,15.07
2022-09-09T05:20:31.202Z,15.02
2022-09-09T05:22:58.357Z,15.13
2022-09-09T05:25:28.559Z,15.11
2022-09-09T05:27:55.479Z,15.17
2022-09-09T05:30:24.295Z,15.19
2022-09-09T05:32:51.375Z,15.13
2022-09-09T05:35:20.140Z,15.18
2022-09-09T05:37:47.156Z,15.24
2022-09-09T05:40:14.040Z,15.28
2022-09-09T05:42:41.699Z,15.32
2022-09-09T05:45:09.767Z,15.30
2022-09-09T05:47:38.410Z,15.40
2022-09-09T05:50:05.843Z,15.37
2022-09-09T05:52:32.989Z,15.47
2022-09-09T05:55:00.996Z,15.46
2022-09-09T05:57:27.773Z,15.50
2022-09-09T05:59:54.821Z,15.49
2022-09-09T06:02:22.114Z,15.50
2022-09-09T06:04:48.800Z,15.53
2022-09-09T06:07:15.757Z,15.53
2022-09-09T06:09:42.630Z,15.55
2022-09-09T06:12:10.004Z,15.59
2022-09-09T06:14:37.311Z,15.63
2022-09-09T06:17:04.058Z,15.63
2022-09-09T06:19:31.879Z,15.73
2022-09-09T06:21:58.561Z,15.67
2022-09-09T06:24:25.378Z,15.83
2022-09-09T06:26:51.959Z,15.84
2022-09-09T06:29:18.580Z,15.85
2022-09-09T06:31:45.921Z,15.92
2022-09-09T06:34:12.634Z,16.03
2022-09-09T06:36:39.964Z,16.13
2022-09-09T06:39:12.156Z,16.18
2022-09-09T06:41:42.083Z,16.23
2022-09-09T06:44:08.848Z,16.26
2022-09-09T06:46:36.775Z,16.39
2022-09-09T06:49:04.068Z,16.47
2022-09-09T06:51:32.510Z,16.33
2022-09-09T06:54:01.061Z,16.62
2022-09-09T06:56:36.377Z,16.49
2022-09-09T06:59:06.101Z,16.70
2022-09-09T07:01:35.209Z,16.69
2022-09-09T07:04:03.183Z,16.69
2022-09-09T07:06:31.665Z,16.89
2022-09-09T07:09:01.226Z,16.97
2022-09-09T07:11:30.429Z,16.98
2022-09-09T07:13:59.011Z,16.91
2022-09-09T07:16:26.734Z,16.96
2022-09-09T07:18:58.775Z,16.89
2022-09-09T07:21:27.574Z,16.81
2022-09-09T07:23:55.521Z,16.82
2022-09-09T07:26:25.544Z,16.80
2022-09-09T07:28:52.327Z,16.72
2022-09-09T07:31:21.800Z,16.81
2022-09-09T07:33:49.508Z,16.88
2022-09-09T07:36:26.405Z,16.93
2022-09-09T07:38:57.511Z,16.95
2022-09-09T07:41:31.396Z,16.95
2022-09-09T07:43:58.019Z,16.95
2022-09-09T07:46:27.232Z,17.05
2022-09-09T07:48:56.859Z,17.05
2022-09-09T07:51:29.693Z,17.05
2022-09-09T07:54:02.940Z,17.20
2022-09-09T07:56:33.707Z,17.47
2022-09-09T07:59:01.006Z,17.62
2022-09-09T08:01:38.593Z,17.82
2022-09-09T08:04:08.207Z,17.87
2022-09-09T08:06:39.516Z,17.96
2022-09-09T08:09:08.046Z,18.09
2022-09-09T08:11:39.206Z,18.09
2022-09-09T08:14:10.596Z,18.17
2022-09-09T08:16:40.324Z,18.32
2022-09-09T08:19:08.414Z,18.47
2022-09-09T08:21:37.853Z,18.71
2022-09-09T08:24:06.255Z,18.78
2022-09-09T08:26:38.347Z,18.91
2022-09-09T08:29:07.852Z,19.04
2022-09-09T08:31:38.176Z,18.97
2022-09-09T08:34:05.906Z,18.85
2022-09-09T08:36:35.390Z,18.71
2022-09-09T08:39:02.847Z,18.72
2022-09-09T08:42:03.762Z,18.59
2022-09-09T08:44:49.371Z,18.56
2022-09-09T08:47:33.967Z,18.85
2022-09-09T08:50:12.796Z,18.93
2022-09-09T08:53:14.390Z,19.22
2022-09-09T08:55:59.875Z,19.47
2022-09-09T08:58:31.941Z,19.65
2022-09-09T09:01:10.500Z,19.81
2022-09-09T09:03:55.342Z,19.70
2022-09-09T09:06:40.528Z,19.76
2022-09-09T09:09:37.361Z,19.67
2022-09-09T09:12:18.302Z,19.50
2022-09-09T09:14:48.895Z,19.49
2022-09-09T09:17:21.479Z,19.59
2022-09-09T09:19:50.854Z,19.73
2022-09-09T09:22:22.253Z,19.75
2022-09-09T09:25:11.751Z,19.58
2022-09-09T09:27:48.459Z,19.43
2022-09-09T09:30:26.668Z,19.34
2022-09-09T09:33:00.900Z,19.33
2022-09-09T09:35:27.872Z,19.28
2022-09-09T09:40:56.124Z,20.00
2022-09-09T09:43:28.813Z,19.91
2022-09-09T09:46:14.278Z,20.05
2022-09-09T09:48:42.914Z,20.56
2022-09-09T09:51:15.015Z,20.55
2022-09-09T09:53:43.726Z,20.77
2022-09-09T09:56:14.351Z,20.97
2022-09-09T09:58:50.838Z,21.08
2022-09-09T10:01:35.003Z,20.53
2022-09-09T10:04:24.648Z,20.20
2022-09-09T10:06:51.893Z,20.11
2022-09-09T10:09:23.158Z,20.05
2022-09-09T10:12:23.576Z,21.28
2022-09-09T10:15:09.311Z,22.48
2022-09-09T10:17:56.311Z,23.05
2022-09-09T10:20:55.323Z,23.45
2022-09-09T10:23:40.682Z,22.59
2022-09-09T10:26:41.676Z,22.70
2022-09-09T10:29:28.805Z,23.49
2022-09-09T10:32:23.473Z,23.96
2022-09-09T10:35:20.939Z,24.80
2022-09-09T10:38:15.544Z,24.02
2022-09-09T10:40:52.422Z,24.71
2022-09-09T10:44:06.143Z,23.29
2022-09-09T10:46:46.499Z,22.82
2022-09-09T10:49:50.753Z,22.78
2022-09-09T10:52:43.720Z,23.76
2022-09-09T10:55:13.648Z,24.00
2022-09-09T10:57:53.252Z,24.92
2022-09-09T11:00:21.538Z,24.41
2022-09-09T11:02:58.585Z,24.52
2022-09-09T11:05:28.392Z,25.46
2022-09-09T11:08:04.382Z,26.17
2022-09-09T11:10:56.291Z,25.75
2022-09-09T11:13:30.436Z,26.54
2022-09-09T11:16:06.948Z,26.65
2022-09-09T11:18:40.916Z,27.28
2022-09-09T11:21:13.928Z,25.83
2022-09-09T11:23:46.893Z,26.34
2022-09-09T11:26:26.111Z,25.11
2022-09-09T11:29:15.369Z,24.10
2022-09-09T11:31:56.991Z,24.24
2022-09-09T11:34:41.867Z,23.74
2022-09-09T11:37:23.938Z,23.88
2022-09-09T11:40:10.973Z,24.51
2022-09-09T11:42:37.944Z,25.54
2022-09-09T11:45:31.392Z,24.61
2022-09-09T11:48:00.598Z,24.40
2022-09-09T11:50:27.193Z,24.42
2022-09-09T11:53:25.296Z,23.77
2022-09-09T11:56:12.063Z,24.67
2022-09-09T11:58:42.517Z,24.62
2022-09-09T12:01:46.048Z,25.71
2022-09-09T12:04:21.272Z,26.61
2022-09-09T12:06:56.243Z,26.60
2022-09-09T12:09:43.574Z,27.35
2022-09-09T12:12:13.007Z,25.60
2022-09-09T12:14:44.544Z,26.14
2022-09-09T12:17:20.633Z,27.07
2022-09-09T12:19:48.444Z,26.79
2022-09-09T12:22:34.633Z,27.59
2022-09-09T12:25:10.245Z,27.57
2022-09-09T12:27:52.365Z,26.84
2022-09-09T12:30:19.420Z,25.66
2022-09-09T12:32:46.160Z,24.68
2022-09-09T12:35:33.251Z,23.48
2022-09-09T12:38:03.077Z,22.98
2022-09-09T12:40:36.450Z,22.69
2022-09-09T12:43:18.030Z,22.51
2022-09-09T12:45:46.409Z,22.70
2022-09-09T12:48:16.691Z,22.55
2022-09-09T12:50:51.175Z,22.74
2022-09-09T12:53:26.491Z,22.83
2022-09-09T12:55:59.394Z,23.46
2022-09-09T12:58:29.392Z,23.14
2022-09-09T13:00:57.618Z,23.09
2022-09-09T13:03:26.078Z,22.81
2022-09-09T13:05:54.444Z,22.56
2022-09-09T13:08:21.699Z,22.36
2022-09-09T13:11:02.966Z,22.27
2022-09-09T13:13:36.480Z,22.06
2022-09-09T13:16:05.939Z,22.23
2022-09-09T13:18:39.217Z,22.37
2022-09-09T13:21:06.113Z,22.45
2022-09-09T13:23:38.666Z,23.29
2022-09-09T13:26:22.256Z,23.16
2022-09-09T13:28:49.072Z,23.60
2022-09-09T13:31:30.166Z,24.22
2022-09-09T13:33:57.174Z,24.62
2022-09-09T13:36:34.292Z,24.86
2022-09-09T13:39:03.206Z,24.69
2022-09-09T13:41:43.153Z,24.31
2022-09-09T13:44:25.000Z,23.85
2022-09-09T13:47:06.855Z,22.96
2022-09-09T13:49:36.275Z,22.73
2022-09-09T13:52:11.373Z,22.48
2022-09-09T13:54:38.670Z,22.07
2022-09-09T13:57:05.773Z,21.82
2022-09-09T14:00:04.247Z,21.53
2022-09-09T14:02:20.092Z,21.32
2022-09-09T14:04:48.243Z,21.54
2022-09-09T14:07:17.092Z,21.18
2022-09-09T14:09:43.820Z,20.35
2022-09-09T14:12:14.051Z,20.34
2022-09-09T14:14:40.885Z,20.13
2022-09-09T14:17:08.232Z,19.95
2022-09-09T14:19:35.353Z,19.88
2022-09-09T14:22:05.184Z,19.75
2022-09-09T14:24:32.005Z,19.60
2022-09-09T14:26:58.822Z,19.63
2022-09-09T14:29:27.687Z,19.51
2022-09-09T14:31:54.323Z,19.09
2022-09-09T14:34:21.010Z,18.28
2022-09-09T14:36:48.464Z,17.68
2022-09-09T14:39:15.258Z,17.35
2022-09-09T14:41:41.946Z,17.14
2022-09-09T14:44:09.634Z,16.99
2022-09-09T14:46:36.424Z,17.04
2022-09-09T14:49:03.332Z,17.11
2022-09-09T14:51:30.085Z,17.13
2022-09-09T14:54:00.098Z,17.26
2022-09-09T14:56:30.702Z,17.27
2022-09-09T14:59:02.026Z,17.46
2022-09-09T15:01:30.448Z,17.70
2022-09-09T15:03:59.148Z,17.84
2022-09-09T15:06:29.042Z,17.88
2022-09-09T15:08:58.874Z,18.19
2022-09-09T15:11:28.847Z,18.40
2022-09-09T15:13:55.930Z,18.59
2022-09-09T15:16:28.445Z,18.69
2022-09-09T15:18:59.536Z,18.91
2022-09-09T15:21:29.066Z,19.01
2022-09-09T15:23:57.025Z,19.28
2022-09-09T15:26:25.033Z,19.48
2022-09-09T15:28:52.025Z,19.67
2022-09-09T15:31:22.601Z,19.70
2022-09-09T15:34:03.635Z,19.78
2022-09-09T15:36:33.309Z,19.76
2022-09-09T15:39:01.292Z,19.72
2022-09-09T15:41:28.770Z,19.92
2022-09-09T15:44:00.229Z,19.63
2022-09-09T15:46:31.438Z,19.35
2022-09-09T15:49:06.291Z,19.17
2022-09-09T15:51:49.245Z,19.10
2022-09-09T15:54:19.279Z,19.10
2022-09-09T15:56:49.981Z,19.02
2022-09-09T15:59:17.243Z,18.91
2022-09-09T16:01:45.208Z,19.02
2022-09-09T16:04:12.876Z,18.91
2022-09-09T16:06:40.323Z,18.96
2022-09-09T16:09:08.679Z,18.90
2022-09-09T16:11:38.250Z,18.95
2022-09-09T16:14:06.664Z,18.90
2022-09-09T16:16:34.122Z,18.88
2022-09-09T16:19:05.358Z,18.90
2022-09-09T16:21:38.670Z,18.79
2022-09-09T16:24:06.846Z,18.66
2022-09-09T16:26:37.101Z,18.68
2022-09-09T16:29:04.489Z,18.62
2022-09-09T16:31:35.274Z,18.46
2022-09-09T16:34:02.137Z,18.52
2022-09-09T16:36:31.472Z,18.53
2022-09-09T16:39:00.828Z,18.52
2022-09-09T16:41:29.110Z,18.34
2022-09-09T16:43:57.864Z,18.12
2022-09-09T16:46:25.553Z,18.20
2022-09-09T16:48:53.514Z,18.06
2022-09-09T16:51:29.066Z,18.10
2022-09-09T16:53:58.493Z,17.87
2022-09-09T16:56:28.355Z,17.79
2022-09-09T16:58:57.558Z,17.67
2022-09-09T17:01:25.285Z,17.63
2022-09-09T17:04:01.373Z,17.40
2022-09-09T17:06:30.210Z,17.43
2022-09-09T17:09:02.429Z,17.31
2022-09-09T17:11:30.520Z,17.28
2022-09-09T17:13:59.192Z,16.99
2022-09-09T17:16:29.344Z,16.88
2022-09-09T17:18:57.272Z,16.87
2022-09-09T17:21:26.564Z,16.87
2022-09-09T17:23:55.053Z,16.75
2022-09-09T17:26:27.636Z,16.77
2022-09-09T17:28:59.381Z,16.71
2022-09-09T17:31:27.544Z,16.70
2022-09-09T17:33:54.928Z,16.66
2022-09-09T17:36:23.341Z,16.69
2022-09-09T17:38:50.748Z,16.66
2022-09-09T17:41:22.949Z,16.68
2022-09-09T17:43:50.581Z,16.74
2022-09-09T17:46:29.242Z,16.74
2022-09-09T17:48:59.350Z,16.74
2022-09-09T17:51:28.973Z,16.76
2022-09-09T17:53:59.365Z,16.77
2022-09-09T17:56:29.342Z,16.77
2022-09-09T17:58:56.023Z,16.78
2022-09-09T18:01:25.528Z,16.64
2022-09-09T18:03:52.335Z,16.66
2022-09-09T18:06:21.854Z,16.73
2022-09-09T18:08:50.985Z,16.71
2022-09-09T18:11:19.592Z,16.72
2022-09-09T18:13:52.657Z,16.67
2022-09-09T18:16:19.863Z,16.66
2022-09-09T18:18:47.091Z,16.64
2022-09-09T18:21:14.204Z,16.66
2022-09-09T18:23:43.014Z,16.65
2022-09-09T18:26:15.446Z,16.69
2022-09-09T18:28:43.562Z,16.64
2022-09-09T18:31:12.849Z,16.60
2022-09-09T18:33:41.769Z,16.51
2022-09-09T18:36:10.891Z,16.52
2022-09-09T18:38:38.612Z,16.52
2022-09-09T18:41:17.436Z,16.55
2022-09-09T18:43:45.082Z,16.53
2022-09-09T18:46:14.267Z,16.57
2022-09-09T18:48:41.381Z,16.53
2022-09-09T18:51:10.404Z,16.46
2022-09-09T18:53:38.275Z,16.51
2022-09-09T18:56:10.925Z,16.43
2022-09-09T18:58:37.900Z,16.42
2022-09-09T19:01:07.878Z,16.39
2022-09-09T19:03:35.894Z,16.40
2022-09-09T19:06:09.615Z,16.41
2022-09-09T19:08:38.095Z,16.40
2022-09-09T19:11:10.052Z,16.39
2022-09-09T19:13:37.267Z,16.36
2022-09-09T19:16:13.150Z,16.34
2022-09-09T19:18:41.075Z,16.28
2022-09-09T19:21:15.252Z,16.20
2022-09-09T19:23:46.154Z,16.19
2022-09-09T19:26:17.217Z,16.18
2022-09-09T19:28:50.173Z,16.15
2022-09-09T19:31:18.850Z,16.08
2022-09-09T19:33:47.257Z,16.07
2022-09-09T19:36:17.901Z,16.08
2022-09-09T19:38:46.501Z,16.08
2022-09-09T19:41:23.297Z,16.07
2022-09-09T19:43:51.191Z,16.11
2022-09-09T19:46:20.887Z,16.08
2022-09-09T19:48:48.600Z,16.09
2022-09-09T19:51:19.502Z,15.92
2022-09-09T19:53:58.607Z,15.97
2022-09-09T19:56:31.078Z,15.92
2022-09-09T19:58:58.799Z,15.68
2022-09-09T20:01:40.073Z,15.88
2022-09-09T20:04:15.629Z,15.54
2022-09-09T20:06:44.674Z,15.81
2022-09-09T20:09:14.711Z,15.81
2022-09-09T20:11:43.199Z,15.79
2022-09-09T20:14:11.806Z,15.74
2022-09-09T20:16:39.469Z,15.69
2022-09-09T20:19:10.300Z,15.60
2022-09-09T20:21:43.930Z,15.52
2022-09-09T20:24:15.218Z,15.38
2022-09-09T20:26:42.322Z,15.36
2022-09-09T20:29:15.945Z,15.39
2022-09-09T20:31:44.012Z,15.43
2022-09-09T20:34:13.549Z,15.38
2022-09-09T20:36:41.434Z,15.45
2022-09-09T20:39:12.207Z,15.48
2022-09-09T20:41:41.134Z,15.55
2022-09-09T20:44:12.623Z,15.55
2022-09-09T20:46:42.726Z,15.51
2022-09-09T20:49:10.929Z,15.53
2022-09-09T20:51:38.226Z,15.54
2022-09-09T20:54:08.653Z,15.59
2022-09-09T20:56:38.766Z,15.58
2022-09-09T20:59:06.964Z,15.51
2022-09-09T21:01:33.820Z,15.44
2022-09-09T21:04:00.617Z,15.33
2022-09-09T21:06:27.477Z,15.41
2022-09-09T21:08:54.377Z,15.35
2022-09-09T21:11:21.368Z,15.37
2022-09-09T21:13:48.854Z,15.32
2022-09-09T21:16:19.558Z,15.28
2022-09-09T21:18:46.455Z,15.26
2022-09-09T21:21:13.735Z,15.27
2022-09-09T21:23:41.789Z,15.25
2022-09-09T21:26:10.039Z,15.29
2022-09-09T21:28:37.708Z,15.27
2022-09-09T21:31:05.766Z,15.20
2022-09-09T21:33:34.845Z,15.26
2022-09-09T21:36:06.736Z,15.26
2022-09-09T21:38:34.487Z,15.30
2022-09-09T21:41:05.965Z,15.26
2022-09-09T21:43:33.796Z,15.28
2022-09-09T21:46:04.146Z,15.26
2022-09-09T21:48:31.652Z,15.27
2022-09-09T21:51:03.446Z,15.32
2022-09-09T21:53:30.182Z,15.35
2022-09-09T21:56:01.610Z,15.36
2022-09-09T21:58:28.363Z,15.33
2022-09-09T22:00:55.047Z,15.31
2022-09-09T22:03:21.855Z,15.27
2022-09-09T22:05:53.285Z,15.24
2022-09-09T22:08:20.674Z,15.25
2022-09-09T22:10:47.899Z,15.20
2022-09-09T22:13:16.456Z,15.12
2022-09-09T22:15:45.557Z,15.10
2022-09-09T22:18:13.458Z,15.10
2022-09-09T22:20:43.161Z,15.05
2022-09-09T22:23:11.893Z,15.04
2022-09-09T22:25:39.401Z,15.02
2022-09-09T22:28:07.842Z,14.99
2022-09-09T22:30:34.925Z,14.95
2022-09-09T22:33:01.835Z,14.89
2022-09-09T22:35:29.167Z,14.90
2022-09-09T22:37:56.067Z,14.85
2022-09-09T22:40:22.990Z,14.85
2022-09-09T22:42:52.716Z,14.80
2022-09-09T22:45:20.973Z,14.83
2022-09-09T22:47:47.820Z,14.79
2022-09-09T22:50:14.555Z,14.79
2022-09-09T22:52:41.426Z,14.75
2022-09-09T22:55:09.424Z,14.77
2022-09-09T22:57:36.573Z,14.77
2022-09-09T23:00:09.114Z,14.78
2022-09-09T23:02:40.936Z,14.75
2022-09-09T23:05:08.945Z,14.76
2022-09-09T23:07:38.399Z,14.74
2022-09-09T23:10:06.070Z,14.70
2022-09-09T23:12:34.143Z,14.69
2022-09-09T23:15:00.914Z,14.66
2022-09-09T23:17:27.657Z,14.68
2022-09-09T23:19:57.661Z,14.64
2022-09-09T23:22:24.821Z,14.63
2022-09-09T23:24:52.863Z,14.70
2022-09-09T23:27:21.494Z,14.70
2022-09-09T23:29:49.703Z,14.75
2022-09-09T23:32:17.700Z,14.80
2022-09-09T23:34:47.290Z,14.82
2022-09-09T23:37:14.154Z,14.87
2022-09-09T23:39:41.145Z,14.92
2022-09-09T23:42:10.130Z,14.99
2022-09-09T23:44:38.447Z,15.04
2022-09-09T23:47:06.620Z,15.06
2022-09-09T23:49:35.029Z,15.09
2022-09-09T23:52:06.854Z,15.09
2022-09-09T23:54:35.153Z,15.08
2022-09-09T23:57:04.175Z,15.11
2022-09-09T23:59:31.744Z,15.10
